createdAt,value
2023-10-22T00:00:54.748Z,13.50
2023-10-22T00:02:59.823Z,13.52
2023-10-22T00:05:05.005Z,13.53
2023-10-22T00:07:11.053Z,13.51
2023-10-22T00:09:15.799Z,13.51
2023-10-22T00:11:20.596Z,13.50
2023-10-22T00:13:28.125Z,13.53
2023-10-22T00:15:32.811Z,13.53
2023-10-22T00:17:37.699Z,13.54
2023-10-22T00:19:42.721Z,13.56
2023-10-22T00:21:47.715Z,13.55
2023-10-22T00:23:52.674Z,13.55
2023-10-22T00:25:55.799Z,13.53
2023-10-22T00:28:00.450Z,13.42
2023-10-22T00:30:08.753Z,13.46
2023-10-22T00:32:13.569Z,13.48
2023-10-22T00:34:15.789Z,13.49
2023-10-22T00:36:20.912Z,13.51
2023-10-22T00:38:26.631Z,13.51
2023-10-22T00:40:31.547Z,13.51
2023-10-22T00:42:36.662Z,13.50
2023-10-22T00:44:41.874Z,13.48
2023-10-22T00:46:50.145Z,13.45
2023-10-22T00:48:55.248Z,13.47
2023-10-22T00:51:00.417Z,13.46
2023-10-22T00:53:06.275Z,13.43
2023-10-22T00:55:14.948Z,13.39
2023-10-22T00:57:19.672Z,13.29
2023-10-22T00:59:25.190Z,13.25
2023-10-22T01:01:30.490Z,13.21
2023-10-22T01:03:39.194Z,13.19
2023-10-22T01:05:44.163Z,13.16
2023-10-22T01:07:50.259Z,13.12
2023-10-22T01:09:52.319Z,13.10
2023-10-22T01:12:03.983Z,13.08
2023-10-22T01:14:08.802Z,13.05
2023-10-22T01:16:13.824Z,13.02
2023-10-22T01:18:18.821Z,12.98
2023-10-22T01:20:26.761Z,12.95
2023-10-22T01:22:31.898Z,12.91
2023-10-22T01:24:39.348Z,12.85
2023-10-22T01:26:44.529Z,12.83
2023-10-22T01:28:49.528Z,12.81
2023-10-22T01:30:51.659Z,12.77
2023-10-22T01:32:56.568Z,12.73
2023-10-22T01:35:02.659Z,12.71
2023-10-22T01:37:07.305Z,12.68
2023-10-22T01:39:16.720Z,12.65
2023-10-22T01:41:25.201Z,12.60
2023-10-22T01:43:27.266Z,12.54
2023-10-22T01:45:33.970Z,12.44
2023-10-22T01:47:39.558Z,12.41
2023-10-22T01:49:44.478Z,12.29
2023-10-22T01:51:50.210Z,12.19
2023-10-22T01:53:55.391Z,12.18
2023-10-22T01:56:00.147Z,12.13
2023-10-22T01:58:07.680Z,12.09
2023-10-22T02:00:13.603Z,12.06
2023-10-22T02:02:21.348Z,12.02
2023-10-22T02:04:26.387Z,11.95
2023-10-22T02:06:31.165Z,11.94
2023-10-22T02:08:36.047Z,11.93
2023-10-22T02:10:40.960Z,11.90
2023-10-22T02:12:45.850Z,11.90
2023-10-22T02:14:53.488Z,11.94
2023-10-22T02:16:58.373Z,11.96
2023-10-22T02:19:03.022Z,11.98
2023-10-22T02:21:06.278Z,12.01
2023-10-22T02:23:11.140Z,11.99
2023-10-22T02:25:16.877Z,11.97
2023-10-22T02:27:21.603Z,11.97
2023-10-22T02:29:27.480Z,11.96
2023-10-22T02:31:35.264Z,11.94
2023-10-22T02:33:40.429Z,11.93
2023-10-22T02:35:45.969Z,11.91
2023-10-22T02:37:50.976Z,11.89
2023-10-22T02:39:55.625Z,11.84
2023-10-22T02:42:00.850Z,11.82
2023-10-22T02:44:05.774Z,11.82
2023-10-22T02:46:11.616Z,11.84
2023-10-22T02:48:19.330Z,11.86
2023-10-22T02:50:21.583Z,11.91
2023-10-22T02:52:26.611Z,11.93
2023-10-22T02:54:31.590Z,11.96
2023-10-22T02:56:36.261Z,11.96
2023-10-22T02:58:42.454Z,11.92
2023-10-22T03:00:47.908Z,11.94
2023-10-22T03:02:53.130Z,11.95
2023-10-22T03:04:58.478Z,11.96
2023-10-22T03:07:03.182Z,11.99
2023-10-22T03:09:08.744Z,12.02
2023-10-22T03:11:18.303Z,12.01
2023-10-22T03:13:23.134Z,12.03
2023-10-22T03:15:27.920Z,12.01
2023-10-22T03:17:34.043Z,12.02
2023-10-22T03:19:41.525Z,12.02
2023-10-22T03:21:49.511Z,12.02
2023-10-22T03:23:54.367Z,12.00
2023-10-22T03:26:07.767Z,11.98
2023-10-22T03:28:14.784Z,11.96
2023-10-22T03:30:20.552Z,11.92
2023-10-22T03:32:25.768Z,11.90
2023-10-22T03:34:30.598Z,11.87
2023-10-22T03:36:35.463Z,11.83
2023-10-22T03:38:43.652Z,11.78
2023-10-22T03:40:48.458Z,11.71
2023-10-22T03:42:53.455Z,11.64
2023-10-22T03:44:58.287Z,11.62
2023-10-22T03:47:04.547Z,11.57
2023-10-22T03:49:09.754Z,11.57
2023-10-22T03:51:14.775Z,11.57
2023-10-22T03:53:16.945Z,11.59
2023-10-22T03:55:28.943Z,11.60
2023-10-22T03:57:33.731Z,11.60
2023-10-22T03:59:38.578Z,11.58
2023-10-22T04:01:43.517Z,11.62
2023-10-22T04:03:48.487Z,11.64
2023-10-22T04:05:57.617Z,11.67
2023-10-22T04:08:02.481Z,11.69
2023-10-22T04:10:11.474Z,11.73
2023-10-22T04:12:19.128Z,11.74
2023-10-22T04:14:24.104Z,11.69
2023-10-22T04:16:28.980Z,11.63
2023-10-22T04:18:34.375Z,11.64
2023-10-22T04:20:36.872Z,11.62
2023-10-22T04:22:42.305Z,11.57
2023-10-22T04:24:47.094Z,11.54
2023-10-22T04:26:52.051Z,11.48
2023-10-22T04:29:00.060Z,11.47
2023-10-22T04:31:04.813Z,11.42
2023-10-22T04:33:10.120Z,11.39
2023-10-22T04:35:15.192Z,11.37
2023-10-22T04:37:21.176Z,11.33
2023-10-22T04:39:25.956Z,11.31
2023-10-22T04:41:30.773Z,11.31
2023-10-22T04:43:35.466Z,11.30
2023-10-22T04:45:49.201Z,11.30
2023-10-22T04:47:54.326Z,11.28
2023-10-22T04:49:56.555Z,11.26
2023-10-22T04:52:01.341Z,11.23
2023-10-22T04:54:06.344Z,11.21
2023-10-22T04:56:11.062Z,11.20
2023-10-22T04:58:15.961Z,11.20
2023-10-22T05:00:21.170Z,11.22
2023-10-22T05:02:28.978Z,11.23
2023-10-22T05:04:31.409Z,11.23
2023-10-22T05:06:36.225Z,11.23
2023-10-22T05:08:41.320Z,11.22
2023-10-22T05:10:46.136Z,11.20
2023-10-22T05:12:50.811Z,11.19
2023-10-22T05:14:55.730Z,11.17
2023-10-22T05:17:00.904Z,11.16
2023-10-22T05:19:10.089Z,11.16
2023-10-22T05:21:15.427Z,11.15
2023-10-22T05:23:21.323Z,11.14
2023-10-22T05:25:26.042Z,11.14
2023-10-22T05:27:30.682Z,11.13
2023-10-22T05:29:37.351Z,11.10
2023-10-22T05:31:42.330Z,11.09
2023-10-22T05:33:47.411Z,11.08
2023-10-22T05:35:54.852Z,11.05
2023-10-22T05:37:59.658Z,11.04
2023-10-22T05:40:05.781Z,11.06
2023-10-22T05:42:10.984Z,11.04
2023-10-22T05:44:15.694Z,11.02
2023-10-22T05:46:20.622Z,11.02
2023-10-22T05:48:25.483Z,11.03
2023-10-22T05:50:30.215Z,11.00
2023-10-22T05:52:37.536Z,10.97
2023-10-22T05:54:43.610Z,10.92
2023-10-22T05:56:48.472Z,10.91
2023-10-22T05:58:53.211Z,10.89
2023-10-22T06:00:55.319Z,10.86
2023-10-22T06:03:00.131Z,10.89
2023-10-22T06:05:17.324Z,10.89
2023-10-22T06:07:27.951Z,10.90
2023-10-22T06:09:36.011Z,10.90
2023-10-22T06:11:40.773Z,10.88
2023-10-22T06:13:45.696Z,10.86
2023-10-22T06:15:50.561Z,10.85
2023-10-22T06:17:55.953Z,10.82
2023-10-22T06:20:01.227Z,10.83
2023-10-22T06:22:06.229Z,10.83
2023-10-22T06:24:11.680Z,10.84
2023-10-22T06:26:19.672Z,10.85
2023-10-22T06:28:24.691Z,10.86
2023-10-22T06:30:29.811Z,10.86
2023-10-22T06:32:34.913Z,10.85
2023-10-22T06:34:39.995Z,10.87
2023-10-22T06:36:45.828Z,10.80
2023-10-22T06:38:51.127Z,10.80
2023-10-22T06:40:56.013Z,10.78
2023-10-22T06:43:03.875Z,10.81
2023-10-22T06:45:09.783Z,10.83
2023-10-22T06:47:14.490Z,10.86
2023-10-22T06:49:19.567Z,10.86
2023-10-22T06:51:24.373Z,10.90
2023-10-22T06:53:29.254Z,10.92
2023-10-22T06:55:34.397Z,10.95
2023-10-22T06:57:40.100Z,10.97
2023-10-22T06:59:51.096Z,10.99
2023-10-22T07:01:55.785Z,11.02
2023-10-22T07:04:01.781Z,11.03
2023-10-22T07:06:08.700Z,11.04
2023-10-22T07:08:13.570Z,11.07
2023-10-22T07:10:18.954Z,11.06
2023-10-22T07:12:24.161Z,11.06
2023-10-22T07:14:28.995Z,11.08
2023-10-22T07:16:36.249Z,11.08
2023-10-22T07:18:41.100Z,11.10
2023-10-22T07:20:46.181Z,11.14
2023-10-22T07:22:50.883Z,11.16
2023-10-22T07:24:55.651Z,11.20
2023-10-22T07:26:57.779Z,11.23
2023-10-22T07:29:02.494Z,11.27
2023-10-22T07:31:07.430Z,11.30
2023-10-22T07:33:14.806Z,11.34
2023-10-22T07:35:19.635Z,11.39
2023-10-22T07:37:24.353Z,11.42
2023-10-22T07:39:29.139Z,11.47
2023-10-22T07:41:33.863Z,11.51
2023-10-22T07:43:38.952Z,11.55
2023-10-22T07:45:41.124Z,11.60
2023-10-22T07:47:45.982Z,11.61
2023-10-22T07:49:57.180Z,11.66
2023-10-22T07:52:04.549Z,11.71
2023-10-22T07:54:09.969Z,11.75
2023-10-22T07:56:15.372Z,11.81
2023-10-22T07:58:20.808Z,11.86
2023-10-22T08:00:27.101Z,11.89
2023-10-22T08:02:32.115Z,11.92
2023-10-22T08:04:37.469Z,11.99
2023-10-22T08:06:45.060Z,12.06
2023-10-22T08:08:49.819Z,12.12
2023-10-22T08:10:54.527Z,12.20
2023-10-22T08:12:59.303Z,12.25
2023-10-22T08:15:04.089Z,12.32
2023-10-22T08:17:09.719Z,12.37
2023-10-22T08:19:14.401Z,12.42
2023-10-22T08:21:19.250Z,12.50
2023-10-22T08:23:26.929Z,12.55
2023-10-22T08:25:31.549Z,12.61
2023-10-22T08:27:37.063Z,12.64
2023-10-22T08:29:41.892Z,12.68
2023-10-22T08:31:46.639Z,12.74
2023-10-22T08:33:48.848Z,12.81
2023-10-22T08:35:53.570Z,12.88
2023-10-22T08:37:58.375Z,12.95
2023-10-22T08:40:08.799Z,12.97
2023-10-22T08:42:18.359Z,13.04
2023-10-22T08:44:24.373Z,13.09
2023-10-22T08:46:29.150Z,13.17
2023-10-22T08:48:35.144Z,13.23
2023-10-22T08:50:41.176Z,13.28
2023-10-22T08:52:46.120Z,13.35
2023-10-22T08:54:50.967Z,13.40
2023-10-22T08:56:58.737Z,13.44
2023-10-22T08:59:05.156Z,13.51
2023-10-22T09:01:09.845Z,13.58
2023-10-22T09:03:14.681Z,13.67
2023-10-22T09:05:21.226Z,13.74
2023-10-22T09:07:40.729Z,13.83
2023-10-22T09:09:45.390Z,13.85
2023-10-22T09:12:01.322Z,13.91
2023-10-22T09:14:23.966Z,13.93
2023-10-22T09:16:32.463Z,14.04
2023-10-22T09:18:37.233Z,14.11
2023-10-22T09:20:39.717Z,14.10
2023-10-22T09:22:44.453Z,14.20
2023-10-22T09:24:52.259Z,14.26
2023-10-22T09:26:59.570Z,14.38
2023-10-22T09:29:08.979Z,14.27
2023-10-22T09:31:13.725Z,14.35
2023-10-22T09:33:20.222Z,14.43
2023-10-22T09:35:25.204Z,14.37
2023-10-22T09:37:29.877Z,14.34
2023-10-22T09:39:39.096Z,14.43
2023-10-22T09:41:43.916Z,14.57
2023-10-22T09:43:51.413Z,14.66
2023-10-22T09:45:53.483Z,14.67
2023-10-22T09:48:11.491Z,14.62
2023-10-22T09:50:19.944Z,14.70
2023-10-22T09:52:25.922Z,14.78
2023-10-22T09:54:38.238Z,14.73
2023-10-22T09:56:55.820Z,14.82
2023-10-22T09:59:06.580Z,14.78
2023-10-22T10:01:10.609Z,14.70
2023-10-22T10:03:15.773Z,14.74
2023-10-22T10:05:22.498Z,14.82
2023-10-22T10:07:27.523Z,14.86
2023-10-22T10:09:32.928Z,14.77
2023-10-22T10:11:38.327Z,14.83
2023-10-22T10:13:43.480Z,14.80
2023-10-22T10:15:59.035Z,14.88
2023-10-22T10:18:05.108Z,14.94
2023-10-22T10:20:27.357Z,14.99
2023-10-22T10:22:47.122Z,14.98
2023-10-22T10:24:52.530Z,15.05
2023-10-22T10:27:13.157Z,14.99
2023-10-22T10:29:15.742Z,14.93
2023-10-22T10:31:35.580Z,15.02
2023-10-22T10:33:55.291Z,15.05
2023-10-22T10:36:00.244Z,15.01
2023-10-22T10:38:17.400Z,15.02
2023-10-22T10:40:43.432Z,14.94
2023-10-22T10:42:51.507Z,14.81
2023-10-22T10:45:11.117Z,14.84
2023-10-22T10:47:33.429Z,14.92
2023-10-22T10:49:53.462Z,14.96
2023-10-22T10:52:06.850Z,15.03
2023-10-22T10:54:22.932Z,15.17
2023-10-22T10:56:44.870Z,15.36
2023-10-22T10:58:49.725Z,15.54
2023-10-22T11:01:04.532Z,15.63
2023-10-22T11:03:11.790Z,15.52
2023-10-22T11:05:14.600Z,15.48
2023-10-22T11:07:27.422Z,15.43
2023-10-22T11:09:31.947Z,15.39
2023-10-22T11:11:36.803Z,15.34
2023-10-22T11:13:43.013Z,15.46
2023-10-22T11:15:47.899Z,15.54
2023-10-22T11:17:52.638Z,15.47
2023-10-22T11:19:57.564Z,15.43
2023-10-22T11:21:59.932Z,15.27
2023-10-22T11:24:07.668Z,15.23
2023-10-22T11:26:12.423Z,15.23
2023-10-22T11:28:17.718Z,15.24
2023-10-22T11:30:40.283Z,15.29
2023-10-22T11:32:51.065Z,15.31
2023-10-22T11:34:56.413Z,15.26
2023-10-22T11:37:01.778Z,15.30
2023-10-22T11:39:24.297Z,15.38
2023-10-22T11:41:39.531Z,15.42
2023-10-22T11:43:44.803Z,15.40
2023-10-22T11:45:55.963Z,15.38
2023-10-22T11:48:16.183Z,15.44
2023-10-22T11:50:20.990Z,15.56
2023-10-22T11:52:40.775Z,15.72
2023-10-22T11:54:51.287Z,15.83
2023-10-22T11:56:55.938Z,15.99
2023-10-22T11:59:02.429Z,16.15
2023-10-22T12:01:08.549Z,16.38
2023-10-22T12:03:13.403Z,16.59
2023-10-22T12:05:18.129Z,16.72
2023-10-22T12:07:22.928Z,16.80
2023-10-22T12:09:27.634Z,16.87
2023-10-22T12:11:35.027Z,16.86
2023-10-22T12:13:39.744Z,16.92
2023-10-22T12:15:44.401Z,16.91
2023-10-22T12:17:49.196Z,16.66
2023-10-22T12:19:54.001Z,16.66
2023-10-22T12:21:58.630Z,16.54
2023-10-22T12:24:12.690Z,16.57
2023-10-22T12:26:25.398Z,16.48
2023-10-22T12:28:32.727Z,16.43
2023-10-22T12:30:38.038Z,16.48
2023-10-22T12:32:42.965Z,16.47
2023-10-22T12:34:47.624Z,16.41
2023-10-22T12:36:52.352Z,16.45
2023-10-22T12:38:57.765Z,16.52
2023-10-22T12:41:05.327Z,16.44
2023-10-22T12:43:10.077Z,16.55
2023-10-22T12:45:17.824Z,16.59
2023-10-22T12:47:22.558Z,16.70
2023-10-22T12:49:27.259Z,16.78
2023-10-22T12:51:32.116Z,16.91
2023-10-22T12:53:36.855Z,17.01
2023-10-22T12:55:41.505Z,17.11
2023-10-22T12:57:46.316Z,17.16
2023-10-22T12:59:50.998Z,17.18
2023-10-22T13:01:58.258Z,17.16
2023-10-22T13:04:03.696Z,17.15
2023-10-22T13:06:09.578Z,17.29
2023-10-22T13:08:14.818Z,17.39
2023-10-22T13:10:19.693Z,17.54
2023-10-22T13:12:21.958Z,17.50
2023-10-22T13:14:26.612Z,17.51
2023-10-22T13:16:31.712Z,17.41
2023-10-22T13:18:38.958Z,17.20
2023-10-22T13:20:43.761Z,17.02
2023-10-22T13:22:48.536Z,16.89
2023-10-22T13:24:54.678Z,16.80
2023-10-22T13:26:59.377Z,16.70
2023-10-22T13:29:07.759Z,16.72
2023-10-22T13:31:14.701Z,16.77
2023-10-22T13:33:19.620Z,16.85
2023-10-22T13:35:27.078Z,16.81
2023-10-22T13:37:32.866Z,16.85
2023-10-22T13:39:37.683Z,16.90
2023-10-22T13:41:46.420Z,17.04
2023-10-22T13:43:51.412Z,17.09
2023-10-22T13:45:56.155Z,17.12
2023-10-22T13:48:00.978Z,16.97
2023-10-22T13:50:03.375Z,16.94
2023-10-22T13:52:10.848Z,16.85
2023-10-22T13:54:15.710Z,16.78
2023-10-22T13:56:20.528Z,16.79
2023-10-22T13:58:25.346Z,16.83
2023-10-22T14:00:30.200Z,16.95
2023-10-22T14:02:33.233Z,17.04
2023-10-22T14:04:38.162Z,17.11
2023-10-22T14:06:43.254Z,17.10
2023-10-22T14:08:50.761Z,17.05
2023-10-22T14:10:55.472Z,16.79
2023-10-22T14:13:01.845Z,16.77
2023-10-22T14:15:06.927Z,16.74
2023-10-22T14:17:11.689Z,16.67
2023-10-22T14:19:16.716Z,16.52
2023-10-22T14:21:20.303Z,16.40
2023-10-22T14:23:25.046Z,16.38
2023-10-22T14:25:32.868Z,16.36
2023-10-22T14:27:38.752Z,16.32
2023-10-22T14:29:43.600Z,16.34
2023-10-22T14:31:48.307Z,16.25
2023-10-22T14:33:53.137Z,16.16
2023-10-22T14:36:03.996Z,16.13
2023-10-22T14:38:09.233Z,16.05
2023-10-22T14:40:14.445Z,16.04
2023-10-22T14:42:22.222Z,16.01
2023-10-22T14:44:26.953Z,15.98
2023-10-22T14:46:31.800Z,16.03
2023-10-22T14:48:36.865Z,16.07
2023-10-22T14:50:39.194Z,16.10
2023-10-22T14:52:43.914Z,16.11
2023-10-22T14:54:48.596Z,16.15
2023-10-22T14:56:53.253Z,16.15
2023-10-22T14:58:57.940Z,16.06
2023-10-22T15:01:04.192Z,16.05
2023-10-22T15:03:06.433Z,16.02
2023-10-22T15:05:12.378Z,16.01
2023-10-22T15:07:17.264Z,15.96
2023-10-22T15:09:19.463Z,15.87
2023-10-22T15:11:24.433Z,15.87
2023-10-22T15:13:29.233Z,15.84
2023-10-22T15:15:39.889Z,15.81
2023-10-22T15:17:44.680Z,15.76
2023-10-22T15:19:49.494Z,15.82
2023-10-22T15:21:54.310Z,15.76
2023-10-22T15:24:01.441Z,15.75
2023-10-22T15:26:04.002Z,15.74
2023-10-22T15:28:08.719Z,15.66
2023-10-22T15:30:14.276Z,15.66
2023-10-22T15:32:21.510Z,15.63
2023-10-22T15:34:27.484Z,15.58
2023-10-22T15:36:32.216Z,15.56
2023-10-22T15:38:36.888Z,15.48
2023-10-22T15:40:41.561Z,15.38
2023-10-22T15:42:46.373Z,15.35
2023-10-22T15:44:51.333Z,15.35
2023-10-22T15:46:58.197Z,15.34
2023-10-22T15:49:05.431Z,15.35
2023-10-22T15:51:10.352Z,15.38
2023-10-22T15:53:19.204Z,15.39
2023-10-22T15:55:24.705Z,15.43
2023-10-22T15:57:29.527Z,15.40
2023-10-22T15:59:34.785Z,15.45
2023-10-22T16:01:39.984Z,15.45
2023-10-22T16:03:44.867Z,15.41
2023-10-22T16:05:52.501Z,15.38
2023-10-22T16:07:57.287Z,15.36
2023-10-22T16:10:02.487Z,15.32
2023-10-22T16:12:07.628Z,15.27
2023-10-22T16:14:12.524Z,15.22
2023-10-22T16:16:17.970Z,15.19
2023-10-22T16:18:24.041Z,15.15
2023-10-22T16:20:29.404Z,15.10
2023-10-22T16:22:36.642Z,15.07
2023-10-22T16:24:41.977Z,15.02
2023-10-22T16:26:44.068Z,14.96
2023-10-22T16:28:48.750Z,14.90
2023-10-22T16:30:57.454Z,14.87
2023-10-22T16:33:02.406Z,14.87
2023-10-22T16:35:07.968Z,14.87
2023-10-22T16:37:12.684Z,14.87
2023-10-22T16:39:21.487Z,14.89
2023-10-22T16:41:23.557Z,14.90
2023-10-22T16:43:28.288Z,14.93
2023-10-22T16:45:30.534Z,14.96
2023-10-22T16:47:35.339Z,14.96
2023-10-22T16:49:37.698Z,14.96
2023-10-22T16:51:42.758Z,14.92
2023-10-22T16:53:47.545Z,14.89
2023-10-22T16:55:55.039Z,14.84
2023-10-22T16:57:59.850Z,14.76
2023-10-22T17:00:08.011Z,14.68
2023-10-22T17:02:10.862Z,14.64
2023-10-22T17:04:16.216Z,14.62
2023-10-22T17:06:21.116Z,14.57
2023-10-22T17:08:25.945Z,14.52
2023-10-22T17:10:31.198Z,14.43
2023-10-22T17:12:38.738Z,14.35
2023-10-22T17:14:52.251Z,14.32
2023-10-22T17:17:00.539Z,14.35
2023-10-22T17:19:05.386Z,14.36
2023-10-22T17:21:12.009Z,14.37
2023-10-22T17:23:14.109Z,14.40
2023-10-22T17:25:18.990Z,14.40
2023-10-22T17:27:24.366Z,14.38
2023-10-22T17:29:32.103Z,14.36
2023-10-22T17:31:36.750Z,14.33
2023-10-22T17:34:00.931Z,14.27
2023-10-22T17:36:06.285Z,14.22
2023-10-22T17:38:11.074Z,14.21
2023-10-22T17:40:15.823Z,14.19
2023-10-22T17:42:20.560Z,14.20
2023-10-22T17:44:25.248Z,14.16
2023-10-22T17:46:32.694Z,14.15
2023-10-22T17:48:37.838Z,14.10
2023-10-22T17:50:42.697Z,14.08
2023-10-22T17:52:49.255Z,14.06
2023-10-22T17:54:54.258Z,14.06
2023-10-22T17:56:59.240Z,14.02
2023-10-22T17:59:04.090Z,13.99
2023-10-22T18:01:09.146Z,13.95
2023-10-22T18:03:14.084Z,13.92
2023-10-22T18:05:19.043Z,13.91
2023-10-22T18:07:27.212Z,13.90
2023-10-22T18:09:32.241Z,13.87
2023-10-22T18:11:39.376Z,13.84
2023-10-22T18:13:44.279Z,13.80
2023-10-22T18:15:49.074Z,13.70
2023-10-22T18:17:54.135Z,13.59
2023-10-22T18:20:02.104Z,13.51
2023-10-22T18:22:07.352Z,13.45
2023-10-22T18:24:14.057Z,13.45
2023-10-22T18:26:19.035Z,13.46
2023-10-22T18:28:23.855Z,13.47
2023-10-22T18:30:28.921Z,13.50
2023-10-22T18:32:33.708Z,13.55
2023-10-22T18:34:39.130Z,13.58
2023-10-22T18:36:46.952Z,13.62
2023-10-22T18:38:50.439Z,13.68
2023-10-22T18:40:55.255Z,13.71
2023-10-22T18:43:01.061Z,13.68
2023-10-22T18:45:06.028Z,13.63
2023-10-22T18:47:13.044Z,13.63
2023-10-22T18:49:20.915Z,13.62
2023-10-22T18:51:26.529Z,13.58
2023-10-22T18:53:36.625Z,13.51
2023-10-22T18:55:42.481Z,13.49
2023-10-22T18:57:49.254Z,13.43
2023-10-22T18:59:56.548Z,13.39
2023-10-22T19:02:03.948Z,13.35
2023-10-22T19:04:09.187Z,13.26
2023-10-22T19:06:15.621Z,13.20
2023-10-22T19:08:18.148Z,13.16
2023-10-22T19:10:34.413Z,13.12
2023-10-22T19:12:42.264Z,13.11
2023-10-22T19:14:47.271Z,13.10
2023-10-22T19:16:56.410Z,13.12
2023-10-22T19:19:02.634Z,13.13
2023-10-22T19:21:08.877Z,13.11
2023-10-22T19:23:23.155Z,13.01
2023-10-22T19:25:31.163Z,12.96
2023-10-22T19:27:39.221Z,12.93
2023-10-22T19:29:44.700Z,12.90
2023-10-22T19:31:49.513Z,12.88
2023-10-22T19:33:55.415Z,12.88
2023-10-22T19:36:00.882Z,12.86
2023-10-22T19:38:06.498Z,12.86
2023-10-22T19:40:09.953Z,12.86
2023-10-22T19:42:17.846Z,12.85
2023-10-22T19:44:23.278Z,12.80
2023-10-22T19:46:29.184Z,12.75
2023-10-22T19:48:36.387Z,12.68
2023-10-22T19:50:41.144Z,12.63
2023-10-22T19:52:45.926Z,12.60
2023-10-22T19:54:50.697Z,12.59
2023-10-22T19:57:01.284Z,12.59
2023-10-22T19:59:08.703Z,12.58
2023-10-22T20:01:23.422Z,12.56
2023-10-22T20:03:29.549Z,12.54
2023-10-22T20:05:36.578Z,12.55
2023-10-22T20:07:41.263Z,12.56
2023-10-22T20:09:46.189Z,12.54
2023-10-22T20:11:51.071Z,12.54
2023-10-22T20:13:53.277Z,12.55
2023-10-22T20:16:00.969Z,12.56
2023-10-22T20:18:03.236Z,12.55
2023-10-22T20:20:08.610Z,12.55
2023-10-22T20:22:14.374Z,12.54
2023-10-22T20:24:16.764Z,12.54
2023-10-22T20:26:22.387Z,12.55
2023-10-22T20:28:27.195Z,12.50
2023-10-22T20:30:32.074Z,12.45
2023-10-22T20:32:39.876Z,12.45
2023-10-22T20:34:44.652Z,12.45
2023-10-22T20:36:49.637Z,12.45
2023-10-22T20:38:54.504Z,12.44
2023-10-22T20:41:03.002Z,12.45
2023-10-22T20:43:07.803Z,12.43
2023-10-22T20:45:12.957Z,12.43
2023-10-22T20:47:17.725Z,12.42
2023-10-22T20:49:25.550Z,12.44
2023-10-22T20:51:30.456Z,12.42
2023-10-22T20:53:32.840Z,12.41
2023-10-22T20:55:40.854Z,12.41
2023-10-22T20:57:45.760Z,12.41
2023-10-22T20:59:48.302Z,12.41
2023-10-22T21:01:54.431Z,12.38
2023-10-22T21:03:59.797Z,12.36
2023-10-22T21:06:04.731Z,12.35
2023-10-22T21:08:09.629Z,12.34
2023-10-22T21:10:14.292Z,12.37
2023-10-22T21:12:19.043Z,12.37
2023-10-22T21:14:23.862Z,12.37
2023-10-22T21:16:28.631Z,12.36
2023-10-22T21:18:33.426Z,12.36
2023-10-22T21:20:38.369Z,12.34
2023-10-22T21:22:46.059Z,12.33
2023-10-22T21:24:51.024Z,12.30
2023-10-22T21:26:55.863Z,12.28
2023-10-22T21:29:00.752Z,12.27
2023-10-22T21:31:08.301Z,12.26
2023-10-22T21:33:13.806Z,12.18
2023-10-22T21:35:18.866Z,12.13
2023-10-22T21:37:23.614Z,12.16
2023-10-22T21:39:31.186Z,12.15
2023-10-22T21:41:35.934Z,12.15
2023-10-22T21:43:40.671Z,12.14
2023-10-22T21:45:46.267Z,12.16
2023-10-22T21:47:51.023Z,12.18
2023-10-22T21:49:55.736Z,12.20
2023-10-22T21:52:00.429Z,12.23
2023-10-22T21:54:05.125Z,12.25
2023-10-22T21:56:12.535Z,12.28
2023-10-22T21:58:14.685Z,12.31
2023-10-22T22:00:20.946Z,12.31
2023-10-22T22:02:25.986Z,12.30
2023-10-22T22:04:31.007Z,12.27
2023-10-22T22:06:36.084Z,12.24
2023-10-22T22:08:41.074Z,12.19
2023-10-22T22:10:45.979Z,12.16
2023-10-22T22:12:53.800Z,12.09
2023-10-22T22:14:58.551Z,12.05
2023-10-22T22:17:04.540Z,12.04
2023-10-22T22:19:09.263Z,12.03
2023-10-22T22:21:13.908Z,12.03
2023-10-22T22:23:19.128Z,12.00
2023-10-22T22:25:29.770Z,11.99
2023-10-22T22:27:38.299Z,11.99
2023-10-22T22:29:45.862Z,11.98
2023-10-22T22:31:50.879Z,11.95
2023-10-22T22:33:55.625Z,11.90
2023-10-22T22:36:00.438Z,11.85
2023-10-22T22:38:05.152Z,11.84
2023-10-22T22:40:10.912Z,11.81
2023-10-22T22:42:15.760Z,11.77
2023-10-22T22:44:17.880Z,11.75
2023-10-22T22:46:27.428Z,11.72
2023-10-22T22:48:33.881Z,11.72
2023-10-22T22:50:38.874Z,11.72
2023-10-22T22:52:43.760Z,11.74
2023-10-22T22:54:48.607Z,11.73
2023-10-22T22:56:53.493Z,11.71
2023-10-22T22:58:58.266Z,11.73
2023-10-22T23:01:03.465Z,11.78
2023-10-22T23:03:09.250Z,11.81
2023-10-22T23:05:14.387Z,11.81
2023-10-22T23:07:19.245Z,11.81
2023-10-22T23:09:23.930Z,11.81
2023-10-22T23:11:28.850Z,11.79
2023-10-22T23:13:33.877Z,11.74
2023-10-22T23:15:38.727Z,11.75
2023-10-22T23:17:43.495Z,11.75
2023-10-22T23:19:50.926Z,11.77
2023-10-22T23:21:55.714Z,11.80
2023-10-22T23:23:57.764Z,11.79
2023-10-22T23:26:02.591Z,11.78
2023-10-22T23:28:07.607Z,11.78
2023-10-22T23:30:13.560Z,11.77
2023-10-22T23:32:18.725Z,11.75
2023-10-22T23:34:23.612Z,11.74
2023-10-22T23:36:31.347Z,11.73
2023-10-22T23:38:36.338Z,11.72
2023-10-22T23:40:41.021Z,11.68
2023-10-22T23:42:45.711Z,11.65
2023-10-22T23:44:51.090Z,11.58
2023-10-22T23:46:56.085Z,11.55
2023-10-22T23:49:00.900Z,11.52
2023-10-22T23:51:05.934Z,11.47
2023-10-22T23:53:13.423Z,11.43
2023-10-22T23:55:18.324Z,11.41
2023-10-22T23:57:23.074Z,11.38
2023-10-22T23:59:28.046Z,11.33
